Nearby METAR Reports

 

KSNK - Snyder/Winston, Texas, USA
Distance from station: SSE 25mi, 41km
Updated: Fri, 12-Apr-2024 8:15am CDT
Clear
Clear
 Wind from S
Wind: S 10 mph , 17 km/h
Temperature: 54°F , 12°C
Dew Point: 36°F , 2°C
Humidity: 51%
Barometer: 30.17 inHg , 1021.7 hPa
Clouds: Clear
Visibility: 10 miles , 16 km
2024/04/12 13:15 KSNK 121315Z AUTO 18009KT 10SM CLR 12/02 A3017 RMK AO2 T01230021
KSWW - Sweetwater, Texas, USA
Distance from station: SE 56mi, 90km
Updated: Fri, 12-Apr-2024 8:15am CDT

 Wind from S
Wind: S 18 mph , 30 km/h, Gust: 23 mph , 37 km/h
Temperature: 57°F , 14°C
Dew Point: 41°F , 5°C
Humidity: 55%
Barometer: 30.19 inHg , 1022.4 hPa
Visibility: 10 miles , 16 km
2024/04/12 13:15 KSWW 121315Z AUTO 18016G20KT 10SM 14/05 A3019 RMK AO2 T01440045
 
KLBB - Lubbock, Texas, USA
Distance from station: NW 59mi, 94km
Updated: Fri, 12-Apr-2024 7:53am CDT
Partly cloudy
Partly cloudy
 Wind from S
Wind: S 7 mph , 11 km/h
Temperature: 46°F , 8°C
Wind Chill: 42°F , 6°C
Dew Point: 39°F , 4°C
Humidity: 76%
Barometer: 30.15 inHg , 1021 hPa
Clouds: Partly cloudy
Visibility: 10 miles , 16 km
Cloud details: Partly cloudy 25000 ft
2024/04/12 12:53 KLBB 121253Z 17006KT 10SM SCT250 08/04 A3015 RMK AO2 SLP184 T00830039
KPVW - Plainview, Texas, USA
Distance from station: NNW 85mi, 137km
Updated: Fri, 12-Apr-2024 8:10am CDT
Clear
Clear
 Wind from calm
Wind: Calm
Temperature: 43°F , 6°C
Dew Point: 39°F , 4°C
Humidity: 87%
Barometer: 30.17 inHg , 1021.7 hPa
Clouds: Clear
Visibility: 10 miles , 16 km
2024/04/12 13:10 KPVW 121310Z AUTO 00000KT 10SM CLR 06/04 A3017 RMK AO2 T00620037
 
KDYS - Dyess Afb/Abilen, Texas, USA
Distance from station: ESE 88mi, 141km
Updated: Fri, 12-Apr-2024 7:55am CDT
Clear
Clear
 Wind from SSE
Wind: SSE 15 mph , 24 km/h
Temperature: 57°F , 14°C
Dew Point: 43°F , 6°C
Humidity: 59%
Barometer: 30.14 inHg , 1020.7 hPa
Clouds: Clear
Visibility: 10 miles , 16 km
2024/04/12 12:55 KDYS 121255Z AUTO 15013KT 10SM CLR 14/06 A3014 RMK AO2 SLP182 T01390063
KGNC - Seminole, Texas, USA
Distance from station: WSW 89mi, 144km
Updated: Fri, 12-Apr-2024 8:15am CDT
Clear
Clear
 Wind from calm
Wind: Calm
Temperature: 46°F , 8°C
Dew Point: 36°F , 2°C
Humidity: 66%
Barometer: 30.21 inHg , 1023 hPa
Clouds: Clear
Visibility: 10 miles , 16 km
2024/04/12 13:15 KGNC 121315Z AUTO 00000KT 10SM CLR 08/02 A3021 RMK AO2 T00770018
 
KE11 - Andrews, Texas, USA
Distance from station: WSW 93mi, 149km
Updated: Fri, 12-Apr-2024 8:15am CDT
Clear
Clear
 Wind from calm
Wind: Calm
Temperature: 48°F , 9°C
Dew Point: 30°F , -1°C
Humidity: 50%
Barometer: 30.17 inHg , 1021.7 hPa
Clouds: Clear
Visibility: 10 miles , 16 km
2024/04/12 13:15 KE11 121315Z AUTO 00000KT 10SM CLR 09/M01 A3017 RMK AO2 T00871009
KABI - Abilene, Texas, USA
Distance from station: ESE 96mi, 154km
Updated: Fri, 12-Apr-2024 7:52am CDT

 
Barometer: 30.18 inHg , 1022 hPa
2024/04/12 12:52 KABI 121252Z AUTO A3018 RMK AO2 SLPNO PWINO FZRANO $
 
KMAF - Midland, Texas, USA
Distance from station: SW 96mi, 154km
Updated: Fri, 12-Apr-2024 7:53am CDT
Clear
Clear
 Wind from S
Wind: S 13 mph , 20 km/h
Temperature: 61°F , 16°C
Dew Point: 30°F , -1°C
Humidity: 31%
Barometer: 30.14 inHg , 1020.7 hPa
Clouds: Clear
Visibility: 10 miles , 16 km
2024/04/12 12:53 KMAF 121253Z 18011KT 10SM CLR 16/M01 A3014 RMK AO2 SLP172 T01561006
KCDS - Childress, Texas, USA
Distance from station: NNE 110mi, 177km
Updated: Fri, 12-Apr-2024 7:53am CDT
Clear
Clear
 Wind from SSE
Wind: SSE 7 mph , 11 km/h
Temperature: 48°F , 9°C
Wind Chill: 45°F , 7°C
Dew Point: 43°F , 6°C
Humidity: 82%
Barometer: 30.18 inHg , 1022 hPa
Clouds: Clear
Visibility: 10 miles , 16 km
2024/04/12 12:53 KCDS 121253Z AUTO 16006KT 10SM CLR 09/06 A3018 RMK AO2 SLP208 T00890056
 
KSJT - San Angelo, Texas, USA
Distance from station: SSE 121mi, 194km
Updated: Fri, 12-Apr-2024 7:51am CDT
Clear
Clear
 Wind from NNE
Wind: NNE 3 mph , 6 km/h
Temperature: 50°F , 10°C
Dew Point: 41°F , 5°C
Humidity: 71%
Barometer: 30.19 inHg , 1022.4 hPa
Clouds: Clear
Visibility: 10 miles , 16 km
2024/04/12 12:51 KSJT 121251Z AUTO 03003KT 10SM CLR 10/05 A3019 RMK AO2 SLP211 T01000050
KHOB - Hobbs/Lea Co., New Mexico, USA
Distance from station: WSW 122mi, 196km
Updated: Fri, 12-Apr-2024 7:50am CDT
Clear
Clear
 Wind from SSE
Wind: SSE 3 mph , 6 km/h
Temperature: 46°F , 8°C
Dew Point: 28°F , -2°C
Humidity: 50%
Barometer: 30.15 inHg , 1021 hPa
Clouds: Clear
Visibility: 10 miles , 16 km
2024/04/12 12:50 KHOB 121250Z 16003KT 10SM CLR 08/M02 A3015
 
KCOM - Coleman Muni, Texas, USA
Distance from station: SE 131mi, 212km
Updated: Fri, 12-Apr-2024 8:15am CDT
Clear
Clear
 Wind from S
Wind: S 6 mph , 9 km/h
Temperature: 54°F , 12°C
Dew Point: 45°F , 7°C
Humidity: 72%
Barometer: 30.23 inHg , 1023.7 hPa
Clouds: Clear
Visibility: 10 miles , 16 km
2024/04/12 13:15 KCOM 121315Z AUTO 18005KT 10SM CLR 12/07 A3023 RMK AO2 T01240065
KBKD - Breckenridge, Texas, USA
Distance from station: E 134mi, 215km
Updated: Fri, 12-Apr-2024 8:15am CDT
Haze, Clear
Haze, Clear
 
Temperature: 54°F , 12°C
Dew Point: 43°F , 6°C
Humidity: 67%
Barometer: 30.20 inHg , 1022.7 hPa
Summary: Haze
Clouds: Clear
Visibility: 5 miles , 8 km
2024/04/12 13:15 KBKD 121315Z AUTO 5SM HZ CLR 12/06 A3020 RMK AO2 T01160061
 
KF05 - Vernon Wilbarger, Texas, USA
Distance from station: NE 137mi, 220km
Updated: Fri, 12-Apr-2024 8:15am CDT
Clear
Clear
 Wind from calm
Wind: Calm
Temperature: 50°F , 10°C
Dew Point: 48°F , 9°C
Humidity: 94%
Barometer: 30.20 inHg , 1022.7 hPa
Clouds: Clear
Visibility: 10 miles , 16 km
2024/04/12 13:15 KF05 121315Z AUTO 00000KT 10SM CLR 10/09 A3020 RMK AO2 T01010087